createdAt,value
2018-11-02T00:01:04.430Z,87.20
2018-11-02T00:03:32.858Z,87.06
2018-11-02T00:06:01.292Z,87.80
2018-11-02T00:08:29.662Z,86.83
2018-11-02T00:10:58.052Z,87.19
2018-11-02T00:13:26.504Z,87.42
2018-11-02T00:15:54.861Z,87.00
2018-11-02T00:18:23.270Z,87.13
2018-11-02T00:20:51.657Z,88.05
2018-11-02T00:23:20.237Z,87.83
2018-11-02T00:25:48.617Z,87.65
2018-11-02T00:28:17.013Z,87.72
2018-11-02T00:30:45.395Z,88.01
2018-11-02T00:33:13.870Z,87.79
2018-11-02T00:35:42.242Z,87.33
2018-11-02T00:38:10.622Z,88.28
2018-11-02T00:40:39.055Z,88.33
2018-11-02T00:43:07.462Z,88.42
2018-11-02T00:45:35.865Z,87.62
2018-11-02T00:48:04.233Z,87.92
2018-11-02T00:50:32.667Z,88.20
2018-11-02T00:53:01.050Z,87.60
2018-11-02T00:55:29.467Z,87.61
2018-11-02T00:57:57.846Z,87.71
2018-11-02T01:00:26.250Z,87.79
2018-11-02T01:02:54.625Z,87.58
2018-11-02T01:05:23.035Z,87.94
2018-11-02T01:07:51.423Z,88.12
2018-11-02T01:10:19.831Z,87.68
2018-11-02T01:12:48.215Z,88.31
2018-11-02T01:15:16.613Z,88.33
2018-11-02T01:17:45.011Z,88.11
2018-11-02T01:20:13.416Z,87.84
2018-11-02T01:22:41.807Z,88.04
2018-11-02T01:25:10.299Z,88.68
2018-11-02T01:27:38.686Z,88.59
2018-11-02T01:30:07.116Z,88.98
2018-11-02T01:32:35.527Z,88.92
2018-11-02T01:35:03.956Z,89.11
2018-11-02T01:37:32.351Z,89.31
2018-11-02T01:40:00.762Z,88.76
2018-11-02T01:42:29.135Z,88.84
2018-11-02T01:44:57.693Z,89.19
2018-11-02T01:47:26.101Z,88.98
2018-11-02T01:49:54.526Z,89.28
2018-11-02T01:52:22.930Z,89.09
2018-11-02T01:54:51.335Z,88.52
2018-11-02T01:57:19.718Z,89.08
2018-11-02T01:59:48.162Z,88.68
2018-11-02T02:02:16.559Z,88.81
2018-11-02T02:04:44.979Z,88.98
2018-11-02T02:07:13.371Z,89.14
2018-11-02T02:09:41.782Z,89.07
2018-11-02T02:12:10.159Z,88.92
2018-11-02T02:14:38.563Z,88.35
2018-11-02T02:17:06.977Z,88.65
2018-11-02T02:19:35.377Z,88.73
2018-11-02T02:22:03.768Z,89.11
2018-11-02T02:24:32.175Z,88.97
2018-11-02T02:27:00.558Z,89.73
2018-11-02T02:29:28.958Z,89.34
2018-11-02T02:31:57.354Z,89.17
2018-11-02T02:34:25.758Z,89.27
2018-11-02T02:36:54.138Z,89.50
2018-11-02T02:39:22.544Z,89.84
2018-11-02T02:41:50.921Z,89.40
2018-11-02T02:44:19.325Z,89.64
2018-11-02T02:46:47.705Z,90.24
2018-11-02T02:49:16.077Z,90.01
2018-11-02T02:51:44.496Z,90.01
2018-11-02T02:54:12.890Z,90.61
2018-11-02T02:56:41.297Z,89.75
2018-11-02T02:59:09.674Z,90.28
2018-11-02T03:01:38.078Z,90.38
2018-11-02T03:04:06.461Z,90.07
2018-11-02T03:06:34.862Z,89.90
2018-11-02T03:09:03.251Z,90.09
2018-11-02T03:11:31.655Z,90.17
2018-11-02T03:14:00.038Z,90.20
2018-11-02T03:16:28.463Z,89.30
2018-11-02T03:18:56.839Z,89.58
2018-11-02T03:21:25.234Z,88.85
2018-11-02T03:23:53.605Z,89.28
2018-11-02T03:26:22.035Z,88.98
2018-11-02T03:28:50.411Z,88.73
2018-11-02T03:31:18.814Z,88.79
2018-11-02T03:33:47.194Z,88.21
2018-11-02T03:36:15.597Z,88.05
2018-11-02T03:38:43.987Z,88.35
2018-11-02T03:41:12.396Z,88.12
2018-11-02T03:43:40.773Z,88.13
2018-11-02T03:46:09.174Z,87.86
2018-11-02T03:48:37.546Z,88.02
2018-11-02T03:51:06.190Z,88.15
2018-11-02T03:53:34.566Z,87.74
2018-11-02T03:56:02.968Z,87.84
2018-11-02T03:58:31.474Z,87.89
2018-11-02T04:05:58.045Z,87.28
2018-11-02T04:08:26.427Z,87.79
2018-11-02T04:10:54.830Z,87.75
2018-11-02T04:13:23.211Z,87.77
2018-11-02T04:15:51.614Z,87.85
2018-11-02T04:18:20.007Z,87.89
2018-11-02T04:20:48.773Z,87.50
2018-11-02T04:23:17.174Z,87.62
2018-11-02T04:25:45.582Z,87.20
2018-11-02T04:28:13.962Z,87.15
2018-11-02T04:30:42.397Z,87.44
2018-11-02T04:33:10.795Z,87.01
2018-11-02T04:35:39.202Z,87.56
2018-11-02T04:38:07.586Z,87.28
2018-11-02T04:40:35.994Z,87.02
2018-11-02T04:43:04.390Z,87.02
2018-11-02T04:45:39.426Z,86.99
2018-11-02T04:48:09.622Z,87.04
2018-11-02T04:50:38.339Z,86.64
2018-11-02T04:53:06.813Z,86.81
2018-11-02T04:55:35.226Z,86.45
2018-11-02T04:58:03.610Z,86.78
2018-11-02T05:00:32.473Z,86.85
2018-11-02T05:03:00.921Z,87.17
2018-11-02T05:05:29.352Z,87.54
2018-11-02T05:07:57.729Z,87.39
2018-11-02T05:10:26.145Z,87.74
2018-11-02T05:12:54.522Z,87.67
2018-11-02T05:15:22.960Z,87.58
2018-11-02T05:17:51.434Z,87.62
2018-11-02T05:20:19.814Z,87.58
2018-11-02T05:22:48.238Z,87.48
2018-11-02T05:25:16.619Z,87.63
2018-11-02T05:27:45.023Z,87.45
2018-11-02T05:30:13.645Z,87.36
2018-11-02T05:32:42.058Z,87.54
2018-11-02T05:35:10.459Z,87.39
2018-11-02T05:37:38.858Z,87.33
2018-11-02T05:40:07.873Z,87.71
2018-11-02T05:42:36.278Z,87.77
2018-11-02T05:45:05.530Z,87.98
2018-11-02T05:47:33.941Z,88.42
2018-11-02T05:50:02.323Z,88.17
2018-11-02T05:52:30.766Z,87.95
2018-11-02T05:54:59.166Z,87.44
2018-11-02T05:57:27.709Z,87.45
2018-11-02T05:59:56.091Z,87.46
2018-11-02T06:02:24.494Z,87.55
2018-11-02T06:04:52.873Z,87.64
2018-11-02T06:07:21.279Z,87.11
2018-11-02T06:09:52.593Z,87.30
2018-11-02T06:12:21.114Z,86.93
2018-11-02T06:14:49.494Z,86.95
2018-11-02T06:17:17.911Z,86.99
2018-11-02T06:19:46.418Z,86.97
2018-11-02T06:22:14.824Z,86.84
2018-11-02T06:24:43.209Z,86.98
2018-11-02T06:27:11.660Z,86.94
2018-11-02T06:29:40.030Z,86.70
2018-11-02T06:32:08.902Z,86.70
2018-11-02T06:34:37.290Z,86.59
2018-11-02T06:37:05.863Z,86.78
2018-11-02T06:39:34.241Z,86.86
2018-11-02T06:42:02.655Z,86.81
2018-11-02T06:44:31.135Z,86.78
2018-11-02T06:46:59.559Z,87.08
2018-11-02T06:49:27.954Z,87.08
2018-11-02T06:51:56.387Z,86.64
2018-11-02T06:54:24.770Z,86.81
2018-11-02T06:56:53.195Z,86.58
2018-11-02T06:59:21.648Z,87.02
2018-11-02T07:01:50.008Z,87.07
2018-11-02T07:04:19.035Z,86.39
2018-11-02T07:06:47.442Z,86.28
2018-11-02T07:09:16.372Z,86.23
2018-11-02T07:11:44.882Z,86.12
2018-11-02T07:14:13.259Z,85.73
2018-11-02T07:16:41.667Z,85.75
2018-11-02T07:19:10.046Z,85.93
2018-11-02T07:21:38.477Z,85.75
2018-11-02T07:24:06.854Z,84.96
2018-11-02T07:26:35.254Z,85.14
2018-11-02T07:29:03.649Z,84.69
2018-11-02T07:31:32.086Z,84.72
2018-11-02T07:34:00.455Z,84.62
2018-11-02T07:36:28.858Z,84.88
2018-11-02T07:38:57.247Z,84.81
2018-11-02T07:41:25.681Z,85.28
2018-11-02T07:43:54.062Z,84.91
2018-11-02T07:46:22.463Z,84.41
2018-11-02T07:48:50.864Z,84.04
2018-11-02T07:51:19.374Z,84.50
2018-11-02T07:53:47.882Z,83.68
2018-11-02T07:56:16.290Z,83.63
2018-11-02T07:58:44.667Z,83.71
2018-11-02T08:01:13.062Z,83.94
2018-11-02T08:03:41.442Z,83.51
2018-11-02T08:06:10.085Z,83.10
2018-11-02T08:08:38.485Z,82.56
2018-11-02T08:11:07.022Z,82.28
2018-11-02T08:13:35.498Z,82.39
2018-11-02T08:16:03.874Z,82.57
2018-11-02T08:18:32.274Z,82.13
2018-11-02T08:21:00.646Z,82.12
2018-11-02T08:23:29.042Z,81.61
2018-11-02T08:25:57.413Z,81.79
2018-11-02T08:28:25.818Z,81.24
2018-11-02T08:30:54.186Z,80.95
2018-11-02T08:33:22.636Z,80.97
2018-11-02T08:35:50.990Z,81.17
2018-11-02T08:38:19.465Z,80.03
2018-11-02T08:40:47.831Z,80.72
2018-11-02T08:43:16.229Z,80.59
2018-11-02T08:45:44.594Z,79.87
2018-11-02T08:48:12.986Z,80.51
2018-11-02T08:50:41.350Z,79.69
2018-11-02T08:53:09.750Z,80.09
2018-11-02T08:55:38.113Z,78.99
2018-11-02T08:58:06.645Z,79.02
2018-11-02T09:00:34.882Z,78.82
2018-11-02T09:03:03.269Z,79.03
2018-11-02T09:05:31.636Z,78.72
2018-11-02T09:08:00.027Z,78.20
2018-11-02T09:10:28.401Z,78.63
2018-11-02T09:12:56.885Z,77.95
2018-11-02T09:15:25.386Z,78.21
2018-11-02T09:17:53.773Z,77.48
2018-11-02T09:20:22.151Z,77.72
2018-11-02T09:22:50.537Z,76.62
2018-11-02T09:25:18.915Z,77.44
2018-11-02T09:27:47.481Z,76.95
2018-11-02T09:30:16.881Z,76.16
2018-11-02T09:32:45.874Z,76.64
2018-11-02T09:35:14.994Z,76.40
2018-11-02T09:37:43.889Z,76.75
2018-11-02T09:40:12.722Z,75.96
2018-11-02T09:42:41.130Z,75.40
2018-11-02T09:45:11.666Z,75.64
2018-11-02T09:47:40.074Z,75.31
2018-11-02T09:50:09.249Z,75.33
2018-11-02T09:52:38.366Z,75.37
2018-11-02T09:55:07.835Z,75.13
2018-11-02T09:57:36.226Z,75.75
2018-11-02T10:00:04.682Z,74.52
2018-11-02T10:02:33.075Z,74.19
2018-11-02T10:05:02.882Z,73.79
2018-11-02T10:07:31.359Z,73.98
2018-11-02T10:09:59.775Z,74.22
2018-11-02T10:12:28.158Z,73.53
2018-11-02T10:14:56.562Z,73.61
2018-11-02T10:17:24.954Z,73.27
2018-11-02T10:19:53.390Z,73.19
2018-11-02T10:22:21.825Z,72.10
2018-11-02T10:24:50.278Z,72.44
2018-11-02T10:27:18.686Z,72.38
2018-11-02T10:29:47.176Z,72.92
2018-11-02T10:32:15.566Z,72.54
2018-11-02T10:34:44.487Z,72.31
2018-11-02T10:37:12.906Z,72.10
2018-11-02T10:39:41.352Z,72.15
2018-11-02T10:42:10.506Z,71.75
2018-11-02T10:44:41.515Z,71.71
2018-11-02T10:47:09.921Z,71.78
2018-11-02T10:49:38.545Z,70.83
2018-11-02T10:52:07.077Z,71.20
2018-11-02T10:54:35.974Z,70.56
2018-11-02T10:57:04.534Z,70.11
2018-11-02T10:59:32.955Z,70.43
2018-11-02T11:02:08.057Z,69.82
2018-11-02T11:04:37.013Z,69.85
2018-11-02T11:07:05.811Z,70.50
2018-11-02T11:09:34.197Z,70.01
2018-11-02T11:12:02.828Z,69.31
2018-11-02T11:14:31.358Z,69.01
2018-11-02T11:16:59.794Z,68.73
2018-11-02T11:19:28.178Z,68.91
2018-11-02T11:21:56.598Z,68.98
2018-11-02T11:24:24.983Z,68.25
2018-11-02T11:26:53.379Z,68.32
2018-11-02T11:29:21.790Z,68.12
2018-11-02T11:31:50.170Z,68.17
2018-11-02T11:34:18.562Z,67.48
2018-11-02T11:36:46.951Z,67.79
2018-11-02T11:39:15.402Z,67.26
2018-11-02T11:41:43.955Z,68.33
2018-11-02T11:44:12.387Z,68.58
2018-11-02T11:46:40.783Z,67.72
2018-11-02T11:49:09.954Z,68.15
2018-11-02T11:51:38.326Z,68.10
2018-11-02T11:54:06.762Z,67.51
2018-11-02T11:56:35.138Z,67.22
2018-11-02T11:59:03.552Z,65.93
2018-11-02T12:01:31.943Z,66.16
2018-11-02T12:04:00.370Z,65.43
2018-11-02T12:06:28.766Z,64.24
2018-11-02T12:08:57.179Z,63.53
2018-11-02T12:11:25.581Z,63.88
2018-11-02T12:13:53.994Z,63.46
2018-11-02T12:16:22.374Z,63.01
2018-11-02T12:18:50.781Z,63.16
2018-11-02T12:21:19.182Z,63.21
2018-11-02T12:23:47.587Z,62.80
2018-11-02T12:26:16.034Z,63.52
2018-11-02T12:28:44.530Z,63.16
2018-11-02T12:31:12.890Z,63.41
2018-11-02T12:33:41.370Z,63.17
2018-11-02T12:36:09.758Z,63.40
2018-11-02T12:38:38.166Z,63.89
2018-11-02T12:41:06.563Z,64.25
2018-11-02T12:43:34.997Z,63.79
2018-11-02T12:46:03.437Z,63.86
2018-11-02T12:48:31.891Z,63.25
2018-11-02T12:51:00.235Z,63.42
2018-11-02T12:53:28.677Z,62.97
2018-11-02T12:55:57.056Z,63.91
2018-11-02T12:58:25.438Z,63.44
2018-11-02T13:00:53.842Z,63.54
2018-11-02T13:03:22.250Z,64.55
2018-11-02T13:05:50.667Z,64.05
2018-11-02T13:08:19.057Z,64.50
2018-11-02T13:10:47.453Z,64.46
2018-11-02T13:13:15.859Z,63.97
2018-11-02T13:15:44.313Z,64.51
2018-11-02T13:18:12.772Z,64.22
2018-11-02T13:20:41.163Z,63.51
2018-11-02T13:23:09.547Z,63.48
2018-11-02T13:25:38.168Z,63.21
2018-11-02T13:28:06.494Z,62.29
2018-11-02T13:30:34.937Z,62.64
2018-11-02T13:33:03.306Z,61.78
2018-11-02T13:35:31.745Z,62.13
2018-11-02T13:38:00.126Z,62.24
2018-11-02T13:40:28.558Z,61.96
2018-11-02T13:42:56.983Z,61.74
2018-11-02T13:45:25.378Z,61.78
2018-11-02T13:47:53.760Z,61.33
2018-11-02T13:50:22.332Z,60.80
2018-11-02T13:52:50.632Z,61.14
2018-11-02T13:55:19.052Z,61.40
2018-11-02T13:57:47.446Z,61.10
2018-11-02T14:00:17.320Z,61.11
2018-11-02T14:02:45.759Z,61.76
2018-11-02T14:10:12.069Z,61.28
2018-11-02T14:12:40.953Z,62.01
2018-11-02T14:15:11.369Z,61.15
2018-11-02T14:17:40.073Z,61.50
2018-11-02T14:20:09.550Z,62.21
2018-11-02T14:22:38.262Z,62.28
2018-11-02T14:25:07.846Z,62.06
2018-11-02T14:27:36.596Z,62.90
2018-11-02T14:30:06.383Z,62.07
2018-11-02T14:32:34.802Z,62.72
2018-11-02T14:35:03.182Z,62.15
2018-11-02T14:37:31.591Z,63.02
2018-11-02T14:40:00.020Z,63.24
2018-11-02T14:42:28.501Z,63.00
2018-11-02T14:44:56.915Z,63.79
2018-11-02T14:47:25.333Z,63.88
2018-11-02T14:49:53.728Z,63.67
2018-11-02T14:52:22.150Z,63.49
2018-11-02T14:54:50.530Z,64.25
2018-11-02T14:57:18.946Z,64.28
2018-11-02T14:59:47.364Z,63.67
2018-11-02T15:02:15.759Z,64.17
2018-11-02T15:04:44.141Z,64.41
2018-11-02T15:07:12.550Z,64.21
2018-11-02T15:09:40.933Z,64.30
2018-11-02T15:12:09.345Z,65.05
2018-11-02T15:14:37.793Z,65.22
2018-11-02T15:17:06.201Z,65.41
2018-11-02T15:19:34.570Z,65.59
2018-11-02T15:22:02.979Z,65.95
2018-11-02T15:24:31.365Z,65.90
2018-11-02T15:26:59.783Z,65.78
2018-11-02T15:29:28.170Z,65.82
2018-11-02T15:31:56.574Z,66.09
2018-11-02T15:34:24.986Z,66.37
2018-11-02T15:36:53.409Z,66.81
2018-11-02T15:39:21.847Z,67.83
2018-11-02T15:41:50.369Z,67.67
2018-11-02T15:44:18.821Z,69.21
2018-11-02T15:46:47.146Z,68.68
2018-11-02T15:49:16.059Z,69.32
2018-11-02T15:51:44.443Z,69.25
2018-11-02T15:54:12.837Z,69.80
2018-11-02T15:56:41.239Z,69.75
2018-11-02T15:59:09.660Z,69.65
2018-11-02T16:01:38.047Z,69.80
2018-11-02T16:04:06.465Z,69.08
2018-11-02T16:06:34.849Z,68.63
2018-11-02T16:09:03.270Z,69.05
2018-11-02T16:11:31.658Z,69.57
2018-11-02T16:14:00.113Z,68.62
2018-11-02T16:16:28.514Z,68.50
2018-11-02T16:18:56.945Z,68.95
2018-11-02T16:21:25.322Z,69.26
2018-11-02T16:23:53.719Z,69.31
2018-11-02T16:26:22.134Z,69.46
2018-11-02T16:28:50.529Z,69.81
2018-11-02T16:31:18.902Z,69.42
2018-11-02T16:33:47.301Z,68.80
2018-11-02T16:36:15.686Z,70.09
2018-11-02T16:38:44.129Z,69.96
2018-11-02T16:41:12.557Z,69.69
2018-11-02T16:43:40.992Z,72.96
2018-11-02T16:46:09.369Z,74.12
2018-11-02T16:48:37.766Z,71.80
2018-11-02T16:51:06.235Z,71.47
2018-11-02T16:53:34.633Z,71.04
2018-11-02T16:56:03.098Z,71.24
2018-11-02T16:58:31.518Z,71.41
2018-11-02T17:00:59.899Z,71.54
2018-11-02T17:03:28.339Z,72.38
2018-11-02T17:05:56.864Z,73.37
2018-11-02T17:08:25.162Z,74.02
2018-11-02T17:10:53.542Z,73.90
2018-11-02T17:13:21.954Z,73.21
2018-11-02T17:15:50.335Z,73.39
2018-11-02T17:18:18.823Z,74.41
2018-11-02T17:20:47.142Z,73.58
2018-11-02T17:23:15.550Z,73.96
2018-11-02T17:25:43.955Z,74.95
2018-11-02T17:28:12.357Z,76.18
2018-11-02T17:30:40.746Z,75.64
2018-11-02T17:33:09.130Z,75.59
2018-11-02T17:35:37.560Z,75.76
2018-11-02T17:38:05.931Z,76.55
2018-11-02T17:40:34.350Z,75.98
2018-11-02T17:43:02.741Z,77.66
2018-11-02T17:45:31.142Z,77.02
2018-11-02T17:47:59.535Z,80.27
2018-11-02T17:50:28.034Z,79.81
2018-11-02T17:52:56.476Z,82.11
2018-11-02T17:55:24.878Z,80.76
2018-11-02T17:57:53.294Z,79.06
2018-11-02T18:00:21.702Z,78.77
2018-11-02T18:02:50.082Z,78.11
2018-11-02T18:05:18.487Z,76.37
2018-11-02T18:07:46.901Z,76.24
2018-11-02T18:10:15.399Z,77.12
2018-11-02T18:12:43.773Z,75.96
2018-11-02T18:15:12.914Z,76.37
2018-11-02T18:17:41.306Z,76.16
2018-11-02T18:20:11.680Z,75.64
2018-11-02T18:22:40.070Z,75.81
2018-11-02T18:25:08.994Z,76.63
2018-11-02T18:27:37.436Z,77.04
2018-11-02T18:30:07.003Z,77.68
2018-11-02T18:32:35.386Z,77.96
2018-11-02T18:35:03.828Z,77.19
2018-11-02T18:37:32.201Z,77.19
2018-11-02T18:40:00.906Z,76.89
2018-11-02T18:42:29.324Z,77.50
2018-11-02T18:44:57.727Z,77.89
2018-11-02T18:47:31.420Z,78.34
2018-11-02T18:49:59.798Z,78.17
2018-11-02T18:52:28.174Z,78.12
2018-11-02T18:54:56.578Z,78.76
2018-11-02T18:57:24.953Z,78.80
2018-11-02T18:59:53.354Z,79.58
2018-11-02T19:02:21.745Z,79.05
2018-11-02T19:04:50.141Z,79.78
2018-11-02T19:07:18.574Z,79.86
2018-11-02T19:09:47.001Z,79.64
2018-11-02T19:12:15.454Z,79.95
2018-11-02T19:14:43.858Z,80.06
2018-11-02T19:17:12.237Z,79.61
2018-11-02T19:19:40.653Z,80.05
2018-11-02T19:22:09.045Z,80.37
2018-11-02T19:24:37.458Z,80.28
2018-11-02T19:27:06.288Z,80.13
2018-11-02T19:29:35.059Z,80.27
2018-11-02T19:32:03.471Z,80.22
2018-11-02T19:34:32.049Z,80.46
2018-11-02T19:37:00.262Z,81.07
2018-11-02T19:39:28.681Z,80.92
2018-11-02T19:41:57.092Z,80.97
2018-11-02T19:44:25.549Z,81.12
2018-11-02T19:46:54.015Z,80.97
2018-11-02T19:49:22.462Z,81.57
2018-11-02T19:51:51.970Z,81.42
2018-11-02T19:54:20.397Z,82.02
2018-11-02T19:56:48.814Z,81.96
2018-11-02T19:59:17.219Z,81.46
2018-11-02T20:01:45.643Z,82.12
2018-11-02T20:04:14.037Z,81.60
2018-11-02T20:06:42.449Z,82.73
2018-11-02T20:09:12.930Z,82.90
2018-11-02T20:11:41.602Z,83.21
2018-11-02T20:14:10.033Z,82.73
2018-11-02T20:16:38.445Z,83.14
2018-11-02T20:19:06.931Z,83.02
2018-11-02T20:21:35.430Z,83.29
2018-11-02T20:24:03.834Z,83.58
2018-11-02T20:26:32.237Z,83.68
2018-11-02T20:29:00.618Z,82.90
2018-11-02T20:31:29.026Z,83.00
2018-11-02T20:33:57.502Z,83.96
2018-11-02T20:36:25.902Z,83.89
2018-11-02T20:38:54.330Z,84.13
2018-11-02T20:41:22.742Z,83.83
2018-11-02T20:43:51.118Z,84.06
2018-11-02T20:46:19.522Z,85.03
2018-11-02T20:48:48.000Z,85.12
2018-11-02T20:51:16.330Z,85.50
2018-11-02T20:53:44.710Z,85.52
2018-11-02T20:56:13.118Z,85.39
2018-11-02T20:58:41.511Z,85.56
2018-11-02T21:01:10.022Z,85.83
2018-11-02T21:03:38.406Z,85.74
2018-11-02T21:06:06.811Z,86.01
2018-11-02T21:08:35.247Z,85.10
2018-11-02T21:11:03.614Z,85.37
2018-11-02T21:13:32.038Z,85.91
2018-11-02T21:16:00.511Z,86.16
2018-11-02T21:18:28.905Z,86.51
2018-11-02T21:20:57.287Z,85.98
2018-11-02T21:23:25.709Z,86.04
2018-11-02T21:25:54.095Z,85.95
2018-11-02T21:28:22.496Z,85.73
2018-11-02T21:30:50.942Z,85.95
2018-11-02T21:33:19.305Z,86.30
2018-11-02T21:35:47.704Z,86.40
2018-11-02T21:38:16.183Z,85.82
2018-11-02T21:40:44.539Z,86.35
2018-11-02T21:43:12.961Z,85.94
2018-11-02T21:45:41.362Z,86.42
2018-11-02T21:48:09.776Z,85.91
2018-11-02T21:50:38.167Z,86.43
2018-11-02T21:53:06.594Z,86.55
2018-11-02T21:55:34.978Z,86.24
2018-11-02T21:58:03.410Z,86.20
2018-11-02T22:00:31.782Z,86.10
2018-11-02T22:03:00.201Z,86.15
2018-11-02T22:05:28.584Z,86.11
2018-11-02T22:07:56.991Z,85.95
2018-11-02T22:10:25.373Z,85.76
2018-11-02T22:12:53.774Z,85.69
2018-11-02T22:15:22.161Z,85.85
2018-11-02T22:17:50.574Z,85.79
2018-11-02T22:20:18.971Z,85.80
2018-11-02T22:22:47.375Z,85.74
2018-11-02T22:25:16.121Z,86.28
2018-11-02T22:27:44.543Z,86.30
2018-11-02T22:30:14.213Z,85.80
2018-11-02T22:32:42.662Z,85.72
2018-11-02T22:35:11.695Z,85.88
2018-11-02T22:37:40.129Z,86.06
2018-11-02T22:40:09.885Z,86.02
2018-11-02T22:42:38.371Z,85.75
2018-11-02T22:45:07.396Z,85.73
2018-11-02T22:47:35.818Z,85.92
2018-11-02T22:50:04.369Z,86.13
2018-11-02T22:52:32.794Z,86.27
2018-11-02T22:55:01.210Z,86.34
2018-11-02T22:57:29.794Z,86.30
2018-11-02T22:59:58.186Z,86.18
2018-11-02T23:02:26.594Z,86.42
2018-11-02T23:04:54.986Z,86.19
2018-11-02T23:07:23.410Z,86.25
2018-11-02T23:09:51.797Z,86.00
2018-11-02T23:12:20.198Z,86.10
2018-11-02T23:14:48.617Z,85.71
2018-11-02T23:17:17.110Z,85.78
2018-11-02T23:19:45.439Z,86.28
2018-11-02T23:22:13.825Z,86.20
2018-11-02T23:24:42.227Z,85.99
2018-11-02T23:27:11.502Z,86.22
2018-11-02T23:29:39.971Z,86.00
2018-11-02T23:32:08.303Z,86.38
2018-11-02T23:34:36.710Z,86.63
2018-11-02T23:37:05.161Z,86.26
2018-11-02T23:39:33.584Z,86.22
2018-11-02T23:42:01.970Z,86.61
2018-11-02T23:44:30.378Z,86.37
2018-11-02T23:46:58.788Z,86.14
2018-11-02T23:49:27.197Z,86.40
2018-11-02T23:51:55.614Z,86.68
2018-11-02T23:54:24.035Z,86.70
2018-11-02T23:56:52.418Z,87.22
2018-11-02T23:59:20.821Z,87.35
